sensor_id;sensor_type;location;lat;lon;timestamp;pressure;altitude;pressure_sealevel;temperature;humidity
7309;BME280;3695;53.330;9.876;2023-01-13T00:01:56;118326.16;;;10.36;51.81
7309;BME280;3695;53.330;9.876;2023-01-13T00:04:23;118294.25;;;10.35;51.81
7309;BME280;3695;53.330;9.876;2023-01-13T00:06:49;118242.88;;;10.31;51.81
7309;BME280;3695;53.330;9.876;2023-01-13T00:09:16;118267.94;;;10.28;51.81
7309;BME280;3695;53.330;9.876;2023-01-13T00:11:43;118263.66;;;10.30;51.81
7309;BME280;3695;53.330;9.876;2023-01-13T00:14:10;118309.06;;;10.37;51.81
7309;BME280;3695;53.330;9.876;2023-01-13T00:16:36;118254.47;;;10.23;51.81
7309;BME280;3695;53.330;9.876;2023-01-13T00:19:03;118351.78;;;10.31;51.81
7309;BME280;3695;53.330;9.876;2023-01-13T00:21:29;118346.66;;;10.27;51.81
7309;BME280;3695;53.330;9.876;2023-01-13T00:23:55;118359.94;;;10.31;51.80
7309;BME280;3695;53.330;9.876;2023-01-13T00:26:24;118345.91;;;10.28;51.80
7309;BME280;3695;53.330;9.876;2023-01-13T00:28:54;118377.47;;;10.33;51.80
7309;BME280;3695;53.330;9.876;2023-01-13T00:31:21;118358.19;;;10.31;51.81
7309;BME280;3695;53.330;9.876;2023-01-13T00:33:48;118324.53;;;10.31;51.81
7309;BME280;3695;53.330;9.876;2023-01-13T00:36:17;118265.34;;;10.23;51.81
7309;BME280;3695;53.330;9.876;2023-01-13T00:38:43;118240.06;;;10.24;51.81
7309;BME280;3695;53.330;9.876;2023-01-13T00:41:13;118192.50;;;10.15;51.80
7309;BME280;3695;53.330;9.876;2023-01-13T00:43:40;118198.16;;;10.16;51.82
7309;BME280;3695;53.330;9.876;2023-01-13T00:46:09;118091.38;;;9.92;51.82
7309;BME280;3695;53.330;9.876;2023-01-13T00:48:36;118027.50;;;9.95;51.81
7309;BME280;3695;53.330;9.876;2023-01-13T00:51:05;117838.28;;;9.77;51.84
7309;BME280;3695;53.330;9.876;2023-01-13T00:53:35;117756.00;;;9.93;51.85
7309;BME280;3695;53.330;9.876;2023-01-13T00:56:03;117643.47;;;9.85;51.85
7309;BME280;3695;53.330;9.876;2023-01-13T00:58:32;117511.34;;;9.73;51.87
7309;BME280;3695;53.330;9.876;2023-01-13T01:00:59;117442.97;;;9.70;51.87
7309;BME280;3695;53.330;9.876;2023-01-13T01:03:27;117278.66;;;9.75;51.89
7309;BME280;3695;53.330;9.876;2023-01-13T01:05:54;117138.13;;;9.60;51.91
7309;BME280;3695;53.330;9.876;2023-01-13T01:08:20;117118.72;;;9.57;51.91
7309;BME280;3695;53.330;9.876;2023-01-13T01:10:47;117137.50;;;9.62;51.92
7309;BME280;3695;53.330;9.876;2023-01-13T01:13:13;117055.81;;;9.54;51.93
7309;BME280;3695;53.330;9.876;2023-01-13T01:15:41;116945.00;;;9.44;51.95
7309;BME280;3695;53.330;9.876;2023-01-13T01:18:08;116938.59;;;9.43;51.97
7309;BME280;3695;53.330;9.876;2023-01-13T01:20:36;116977.00;;;9.54;51.99
7309;BME280;3695;53.330;9.876;2023-01-13T01:23:03;116900.53;;;9.43;51.99
7309;BME280;3695;53.330;9.876;2023-01-13T01:25:31;116855.97;;;9.34;52.01
7309;BME280;3695;53.330;9.876;2023-01-13T01:27:58;116895.09;;;9.43;52.01
7309;BME280;3695;53.330;9.876;2023-01-13T01:30:24;116902.09;;;9.41;52.01
7309;BME280;3695;53.330;9.876;2023-01-13T01:32:51;117098.94;;;9.43;51.99
7309;BME280;3695;53.330;9.876;2023-01-13T01:35:17;117094.47;;;9.44;52.00
7309;BME280;3695;53.330;9.876;2023-01-13T01:37:45;116955.31;;;9.39;52.03
7309;BME280;3695;53.330;9.876;2023-01-13T01:40:12;117054.47;;;9.50;52.01
7309;BME280;3695;53.330;9.876;2023-01-13T01:42:38;117092.97;;;9.32;52.01
7309;BME280;3695;53.330;9.876;2023-01-13T01:45:24;116671.47;;;9.44;52.07
7309;BME280;3695;53.330;9.876;2023-01-13T01:47:57;116742.81;;;9.58;52.05
7309;BME280;3695;53.330;9.876;2023-01-13T01:50:25;116785.69;;;9.60;52.06
7309;BME280;3695;53.330;9.876;2023-01-13T01:52:57;116816.28;;;9.51;52.05
7309;BME280;3695;53.330;9.876;2023-01-13T01:55:27;116767.00;;;9.48;52.07
7309;BME280;3695;53.330;9.876;2023-01-13T01:57:57;116865.63;;;9.39;52.05
7309;BME280;3695;53.330;9.876;2023-01-13T02:00:27;116563.66;;;9.21;52.09
7309;BME280;3695;53.330;9.876;2023-01-13T02:02:54;116544.66;;;9.36;52.10
7309;BME280;3695;53.330;9.876;2023-01-13T02:05:22;116807.06;;;9.34;52.07
7309;BME280;3695;53.330;9.876;2023-01-13T02:07:50;116531.44;;;9.24;52.10
7309;BME280;3695;53.330;9.876;2023-01-13T02:10:21;116411.31;;;9.10;52.13
7309;BME280;3695;53.330;9.876;2023-01-13T02:12:49;116406.06;;;9.12;52.11
7309;BME280;3695;53.330;9.876;2023-01-13T02:15:19;116397.22;;;9.06;52.11
7309;BME280;3695;53.330;9.876;2023-01-13T02:17:59;116261.63;;;8.92;52.15
7309;BME280;3695;53.330;9.876;2023-01-13T02:20:55;116128.44;;;8.90;52.17
7309;BME280;3695;53.330;9.876;2023-01-13T02:27:19;115904.09;;;8.91;52.20
7309;BME280;3695;53.330;9.876;2023-01-13T02:30:09;115879.81;;;8.83;52.22
7309;BME280;3695;53.330;9.876;2023-01-13T02:33:05;115772.69;;;8.89;52.24
7309;BME280;3695;53.330;9.876;2023-01-13T02:35:36;115673.25;;;8.72;52.28
7309;BME280;3695;53.330;9.876;2023-01-13T02:38:06;115660.13;;;8.76;52.28
7309;BME280;3695;53.330;9.876;2023-01-13T02:40:37;115620.56;;;8.78;52.29
7309;BME280;3695;53.330;9.876;2023-01-13T02:43:11;115431.50;;;8.60;52.33
7309;BME280;3695;53.330;9.876;2023-01-13T02:46:02;115418.03;;;8.70;52.35
7309;BME280;3695;53.330;9.876;2023-01-13T02:48:30;115332.53;;;8.65;52.36
7309;BME280;3695;53.330;9.876;2023-01-13T02:51:02;115242.69;;;8.62;52.38
7309;BME280;3695;53.330;9.876;2023-01-13T02:53:32;115120.56;;;8.52;52.42
7309;BME280;3695;53.330;9.876;2023-01-13T02:56:02;114926.31;;;8.44;52.46
7309;BME280;3695;53.330;9.876;2023-01-13T02:58:31;114784.13;;;8.61;52.48
7309;BME280;3695;53.330;9.876;2023-01-13T03:01:00;114840.16;;;8.60;52.47
7309;BME280;3695;53.330;9.876;2023-01-13T03:03:27;114648.53;;;8.61;52.51
7309;BME280;3695;53.330;9.876;2023-01-13T03:06:03;114507.09;;;8.46;52.55
7309;BME280;3695;53.330;9.876;2023-01-13T03:08:38;114377.22;;;8.49;52.58
7309;BME280;3695;53.330;9.876;2023-01-13T03:11:11;114109.19;;;8.54;52.64
7309;BME280;3695;53.330;9.876;2023-01-13T03:13:59;113884.47;;;8.46;52.72
7309;BME280;3695;53.330;9.876;2023-01-13T03:16:30;113875.75;;;8.39;52.74
7309;BME280;3695;53.330;9.876;2023-01-13T03:19:08;113838.50;;;8.48;52.76
7309;BME280;3695;53.330;9.876;2023-01-13T03:21:44;113736.19;;;8.57;52.78
7309;BME280;3695;53.330;9.876;2023-01-13T03:24:17;113523.81;;;8.45;52.87
7309;BME280;3695;53.330;9.876;2023-01-13T03:26:47;113633.69;;;8.40;52.84
7309;BME280;3695;53.330;9.876;2023-01-13T03:29:18;113438.13;;;8.47;52.90
7309;BME280;3695;53.330;9.876;2023-01-13T03:31:53;113214.72;;;8.30;53.01
7309;BME280;3695;53.330;9.876;2023-01-13T03:34:24;113007.09;;;8.17;53.11
7309;BME280;3695;53.330;9.876;2023-01-13T03:36:54;112897.22;;;8.23;53.16
7309;BME280;3695;53.330;9.876;2023-01-13T03:39:27;112835.28;;;8.29;53.17
7309;BME280;3695;53.330;9.876;2023-01-13T03:41:57;112586.59;;;8.07;53.34
7309;BME280;3695;53.330;9.876;2023-01-13T03:44:28;112491.81;;;8.23;53.33
7309;BME280;3695;53.330;9.876;2023-01-13T03:47:09;112252.19;;;8.16;53.47
7309;BME280;3695;53.330;9.876;2023-01-13T03:49:41;112128.38;;;8.14;53.59
7309;BME280;3695;53.330;9.876;2023-01-13T03:52:12;111934.75;;;8.24;53.69
7309;BME280;3695;53.330;9.876;2023-01-13T03:54:48;111715.28;;;8.01;54.01
7309;BME280;3695;53.330;9.876;2023-01-13T03:57:18;111655.72;;;8.01;54.12
7309;BME280;3695;53.330;9.876;2023-01-13T03:59:49;111605.72;;;8.14;54.16
7309;BME280;3695;53.330;9.876;2023-01-13T04:02:28;111490.78;;;8.06;54.36
7309;BME280;3695;53.330;9.876;2023-01-13T04:05:00;111413.25;;;8.08;54.49
7309;BME280;3695;53.330;9.876;2023-01-13T04:07:34;111316.34;;;7.99;54.68
7309;BME280;3695;53.330;9.876;2023-01-13T04:10:05;111255.06;;;8.01;54.78
7309;BME280;3695;53.330;9.876;2023-01-13T04:12:36;111168.13;;;7.92;54.97
7309;BME280;3695;53.330;9.876;2023-01-13T04:15:20;111101.31;;;7.91;55.10
7309;BME280;3695;53.330;9.876;2023-01-13T04:17:49;111023.09;;;7.99;55.17
7309;BME280;3695;53.330;9.876;2023-01-13T04:20:16;110910.91;;;7.89;55.38
7309;BME280;3695;53.330;9.876;2023-01-13T04:22:42;110826.16;;;7.90;55.49
7309;BME280;3695;53.330;9.876;2023-01-13T04:25:09;110784.72;;;7.93;55.60
7309;BME280;3695;53.330;9.876;2023-01-13T04:27:36;110675.41;;;7.86;55.77
7309;BME280;3695;53.330;9.876;2023-01-13T04:30:04;110583.41;;;7.86;55.91
7309;BME280;3695;53.330;9.876;2023-01-13T04:32:30;110476.94;;;7.84;56.08
7309;BME280;3695;53.330;9.876;2023-01-13T04:34:59;110412.13;;;7.90;56.20
7309;BME280;3695;53.330;9.876;2023-01-13T04:37:25;110326.31;;;7.83;56.39
7309;BME280;3695;53.330;9.876;2023-01-13T04:39:52;110266.84;;;7.86;56.46
7309;BME280;3695;53.330;9.876;2023-01-13T04:42:18;110218.13;;;7.84;56.61
7309;BME280;3695;53.330;9.876;2023-01-13T04:44:44;110144.94;;;7.77;56.80
7309;BME280;3695;53.330;9.876;2023-01-13T04:47:11;110115.22;;;7.80;56.87
7309;BME280;3695;53.330;9.876;2023-01-13T04:49:37;110035.00;;;7.82;56.96
7309;BME280;3695;53.330;9.876;2023-01-13T04:52:05;110007.25;;;7.95;56.95
7309;BME280;3695;53.330;9.876;2023-01-13T04:54:32;109844.09;;;8.01;57.15
7309;BME280;3695;53.330;9.876;2023-01-13T04:56:58;109719.47;;;7.87;57.49
7309;BME280;3695;53.330;9.876;2023-01-13T04:59:25;109547.25;;;7.87;57.73
7309;BME280;3695;53.330;9.876;2023-01-13T05:01:51;109501.41;;;8.04;57.75
7309;BME280;3695;53.330;9.876;2023-01-13T05:04:18;109354.34;;;7.98;58.18
7309;BME280;3695;53.330;9.876;2023-01-13T05:06:44;109277.69;;;8.00;58.35
7309;BME280;3695;53.330;9.876;2023-01-13T05:09:12;109147.84;;;7.94;58.74
7309;BME280;3695;53.330;9.876;2023-01-13T05:11:39;108993.66;;;7.89;59.08
7309;BME280;3695;53.330;9.876;2023-01-13T05:14:24;108789.88;;;7.94;59.39
7309;BME280;3695;53.330;9.876;2023-01-13T05:17:08;108672.69;;;7.93;59.72
7309;BME280;3695;53.330;9.876;2023-01-13T05:19:36;108483.41;;;7.87;60.19
7309;BME280;3695;53.330;9.876;2023-01-13T05:22:04;108367.09;;;7.90;60.47
7309;BME280;3695;53.330;9.876;2023-01-13T05:24:50;108197.75;;;7.81;60.95
7309;BME280;3695;53.330;9.876;2023-01-13T05:27:34;108095.03;;;7.80;61.32
7309;BME280;3695;53.330;9.876;2023-01-13T05:30:01;107992.34;;;7.77;61.67
7309;BME280;3695;53.330;9.876;2023-01-13T05:32:27;107905.09;;;7.67;62.05
7309;BME280;3695;53.330;9.876;2023-01-13T05:34:54;107824.19;;;7.55;62.51
7309;BME280;3695;53.330;9.876;2023-01-13T05:37:21;107817.56;;;7.76;62.29
7309;BME280;3695;53.330;9.876;2023-01-13T05:39:49;107704.09;;;7.73;62.58
7309;BME280;3695;53.330;9.876;2023-01-13T05:42:33;107607.72;;;7.70;62.85
7309;BME280;3695;53.330;9.876;2023-01-13T05:45:17;107514.09;;;7.68;63.16
7309;BME280;3695;53.330;9.876;2023-01-13T05:47:44;107425.59;;;7.76;63.25
7309;BME280;3695;53.330;9.876;2023-01-13T05:50:10;107344.00;;;7.96;63.23
7309;BME280;3695;53.330;9.876;2023-01-13T05:52:37;107195.59;;;7.85;63.71
7309;BME280;3695;53.330;9.876;2023-01-13T05:55:05;107109.09;;;7.85;64.01
7309;BME280;3695;53.330;9.876;2023-01-13T05:57:32;107047.66;;;7.90;64.16
7309;BME280;3695;53.330;9.876;2023-01-13T05:59:59;106932.22;;;7.94;64.53
7309;BME280;3695;53.330;9.876;2023-01-13T06:02:25;106821.66;;;7.86;64.99
7309;BME280;3695;53.330;9.876;2023-01-13T06:04:52;106720.69;;;7.87;65.38
7309;BME280;3695;53.330;9.876;2023-01-13T06:07:18;106673.75;;;7.89;65.53
7309;BME280;3695;53.330;9.876;2023-01-13T06:09:45;106596.19;;;7.92;65.82
7309;BME280;3695;53.330;9.876;2023-01-13T06:12:13;106506.69;;;7.99;66.00
7309;BME280;3695;53.330;9.876;2023-01-13T06:14:39;106425.97;;;7.90;66.54
7309;BME280;3695;53.330;9.876;2023-01-13T06:17:07;106366.78;;;7.84;66.95
7309;BME280;3695;53.330;9.876;2023-01-13T06:19:34;106340.63;;;7.84;67.12
7309;BME280;3695;53.330;9.876;2023-01-13T06:22:05;106283.19;;;7.79;67.46
7309;BME280;3695;53.330;9.876;2023-01-13T06:24:34;106238.94;;;7.82;67.63
7309;BME280;3695;53.330;9.876;2023-01-13T06:27:01;106160.97;;;7.93;67.64
7309;BME280;3695;53.330;9.876;2023-01-13T06:29:29;106067.91;;;7.99;67.96
7309;BME280;3695;53.330;9.876;2023-01-13T06:31:56;105993.25;;;7.96;68.53
7309;BME280;3695;53.330;9.876;2023-01-13T06:34:23;105889.84;;;7.93;69.01
7309;BME280;3695;53.330;9.876;2023-01-13T06:36:52;105817.09;;;7.88;69.47
7309;BME280;3695;53.330;9.876;2023-01-13T06:39:23;105754.81;;;7.91;69.77
7309;BME280;3695;53.330;9.876;2023-01-13T06:41:53;105689.00;;;7.92;70.20
7309;BME280;3695;53.330;9.876;2023-01-13T06:44:38;105622.56;;;7.88;70.78
7309;BME280;3695;53.330;9.876;2023-01-13T06:47:05;105568.69;;;7.85;71.18
7309;BME280;3695;53.330;9.876;2023-01-13T06:49:32;105511.50;;;7.77;71.84
7309;BME280;3695;53.330;9.876;2023-01-13T06:51:59;105449.97;;;7.82;72.06
7309;BME280;3695;53.330;9.876;2023-01-13T06:54:25;105429.84;;;7.87;72.26
7309;BME280;3695;53.330;9.876;2023-01-13T06:56:52;105404.31;;;7.93;72.39
7309;BME280;3695;53.330;9.876;2023-01-13T06:59:18;105365.78;;;7.89;72.74
7309;BME280;3695;53.330;9.876;2023-01-13T07:01:46;105333.53;;;7.86;73.14
7309;BME280;3695;53.330;9.876;2023-01-13T07:04:12;105282.66;;;7.79;73.63
7309;BME280;3695;53.330;9.876;2023-01-13T07:06:39;105283.31;;;7.98;73.19
7309;BME280;3695;53.330;9.876;2023-01-13T07:09:05;105236.38;;;7.85;73.88
7309;BME280;3695;53.330;9.876;2023-01-13T07:11:32;105201.06;;;7.88;74.11
7309;BME280;3695;53.330;9.876;2023-01-13T07:13:59;105178.44;;;8.05;73.99
7309;BME280;3695;53.330;9.876;2023-01-13T07:16:42;105117.59;;;7.83;75.00
7309;BME280;3695;53.330;9.876;2023-01-13T07:19:10;105105.53;;;7.89;75.08
7309;BME280;3695;53.330;9.876;2023-01-13T07:21:38;105065.97;;;7.88;75.59
7309;BME280;3695;53.330;9.876;2023-01-13T07:24:05;104999.78;;;7.81;76.33
7309;BME280;3695;53.330;9.876;2023-01-13T07:26:31;104973.91;;;7.91;76.37
7309;BME280;3695;53.330;9.876;2023-01-13T07:28:57;104938.03;;;7.89;76.95
7309;BME280;3695;53.330;9.876;2023-01-13T07:31:25;104926.94;;;7.94;77.14
7309;BME280;3695;53.330;9.876;2023-01-13T07:33:51;104885.94;;;7.87;77.79
7309;BME280;3695;53.330;9.876;2023-01-13T07:36:19;104850.25;;;7.82;78.46
7309;BME280;3695;53.330;9.876;2023-01-13T07:38:45;104835.94;;;7.94;78.47
7309;BME280;3695;53.330;9.876;2023-01-13T07:41:12;104809.13;;;7.91;79.00
7309;BME280;3695;53.330;9.876;2023-01-13T07:43:57;104791.44;;;8.00;79.08
7309;BME280;3695;53.330;9.876;2023-01-13T07:46:24;104762.75;;;7.84;80.08
7309;BME280;3695;53.330;9.876;2023-01-13T07:48:50;104750.44;;;7.93;80.13
7309;BME280;3695;53.330;9.876;2023-01-13T07:51:18;104735.16;;;8.06;80.10
7309;BME280;3695;53.330;9.876;2023-01-13T07:53:45;104664.31;;;7.88;81.67
7309;BME280;3695;53.330;9.876;2023-01-13T07:56:11;104651.47;;;7.92;82.00
7309;BME280;3695;53.330;9.876;2023-01-13T07:58:38;104638.84;;;8.05;81.95
7309;BME280;3695;53.330;9.876;2023-01-13T08:01:08;104601.78;;;8.07;82.53
7309;BME280;3695;53.330;9.876;2023-01-13T08:03:34;104555.19;;;8.16;83.05
7309;BME280;3695;53.330;9.876;2023-01-13T08:06:01;104501.22;;;8.28;83.90
7309;BME280;3695;53.330;9.876;2023-01-13T08:08:28;104448.75;;;8.30;85.27
7309;BME280;3695;53.330;9.876;2023-01-13T08:10:57;104393.31;;;8.25;87.37
7309;BME280;3695;53.330;9.876;2023-01-13T08:13:24;104297.34;;;8.19;90.19
7309;BME280;3695;53.330;9.876;2023-01-13T08:15:52;104247.09;;;8.40;91.42
7309;BME280;3695;53.330;9.876;2023-01-13T08:18:20;104132.78;;;8.27;96.81
7309;BME280;3695;53.330;9.876;2023-01-13T08:20:48;104054.03;;;8.32;100.00
7309;BME280;3695;53.330;9.876;2023-01-13T08:23:16;103999.97;;;8.32;100.00
7309;BME280;3695;53.330;9.876;2023-01-13T08:25:44;103944.72;;;8.25;100.00
7309;BME280;3695;53.330;9.876;2023-01-13T08:28:12;103885.50;;;8.21;100.00
7309;BME280;3695;53.330;9.876;2023-01-13T08:30:38;103820.69;;;8.10;100.00
7309;BME280;3695;53.330;9.876;2023-01-13T08:33:05;103841.06;;;8.14;100.00
7309;BME280;3695;53.330;9.876;2023-01-13T08:35:34;103808.66;;;8.14;100.00
7309;BME280;3695;53.330;9.876;2023-01-13T08:38:01;103799.75;;;8.35;100.00
7309;BME280;3695;53.330;9.876;2023-01-13T08:40:28;103764.47;;;8.36;100.00
7309;BME280;3695;53.330;9.876;2023-01-13T08:42:56;103728.84;;;8.31;100.00
7309;BME280;3695;53.330;9.876;2023-01-13T08:45:25;103712.41;;;8.34;100.00
7309;BME280;3695;53.330;9.876;2023-01-13T08:47:52;103687.31;;;8.32;100.00
7309;BME280;3695;53.330;9.876;2023-01-13T08:50:18;103653.25;;;8.41;100.00
7309;BME280;3695;53.330;9.876;2023-01-13T08:52:45;103623.41;;;8.42;100.00
7309;BME280;3695;53.330;9.876;2023-01-13T08:55:11;103606.06;;;8.45;100.00
7309;BME280;3695;53.330;9.876;2023-01-13T08:57:38;103553.06;;;8.33;100.00
7309;BME280;3695;53.330;9.876;2023-01-13T09:00:08;103503.19;;;8.37;100.00
7309;BME280;3695;53.330;9.876;2023-01-13T09:02:35;103510.72;;;8.43;100.00
7309;BME280;3695;53.330;9.876;2023-01-13T09:05:03;103466.34;;;8.45;100.00
7309;BME280;3695;53.330;9.876;2023-01-13T09:07:32;103420.59;;;8.54;100.00
7309;BME280;3695;53.330;9.876;2023-01-13T09:09:59;103379.00;;;8.45;100.00
7309;BME280;3695;53.330;9.876;2023-01-13T09:12:26;103315.16;;;8.44;100.00
7309;BME280;3695;53.330;9.876;2023-01-13T09:15:12;103290.25;;;8.50;100.00
7309;BME280;3695;53.330;9.876;2023-01-13T09:17:38;103255.81;;;8.71;100.00
7309;BME280;3695;53.330;9.876;2023-01-13T09:20:05;103222.66;;;8.69;100.00
7309;BME280;3695;53.330;9.876;2023-01-13T09:22:32;103148.50;;;8.72;100.00
7309;BME280;3695;53.330;9.876;2023-01-13T09:25:00;103098.69;;;8.74;100.00
7309;BME280;3695;53.330;9.876;2023-01-13T09:27:27;103035.78;;;8.72;100.00
7309;BME280;3695;53.330;9.876;2023-01-13T09:29:53;103000.50;;;8.74;100.00
7309;BME280;3695;53.330;9.876;2023-01-13T09:32:21;102980.19;;;8.88;100.00
7309;BME280;3695;53.330;9.876;2023-01-13T09:34:48;102918.91;;;8.78;100.00
7309;BME280;3695;53.330;9.876;2023-01-13T09:37:26;102915.59;;;8.84;100.00
7309;BME280;3695;53.330;9.876;2023-01-13T09:39:53;102890.72;;;8.81;100.00
7309;BME280;3695;53.330;9.876;2023-01-13T09:42:25;102830.84;;;8.76;100.00
7309;BME280;3695;53.330;9.876;2023-01-13T09:45:15;102811.13;;;8.83;100.00
7309;BME280;3695;53.330;9.876;2023-01-13T09:47:48;102747.97;;;8.93;100.00
7309;BME280;3695;53.330;9.876;2023-01-13T09:50:28;102720.25;;;8.91;100.00
7309;BME280;3695;53.330;9.876;2023-01-13T09:52:58;102703.72;;;8.94;100.00
7309;BME280;3695;53.330;9.876;2023-01-13T09:55:31;102659.25;;;8.96;100.00
7309;BME280;3695;53.330;9.876;2023-01-13T09:58:01;102623.22;;;8.88;100.00
7309;BME280;3695;53.330;9.876;2023-01-13T10:00:35;102613.66;;;9.01;100.00
7309;BME280;3695;53.330;9.876;2023-01-13T10:03:24;102568.81;;;8.91;100.00
7309;BME280;3695;53.330;9.876;2023-01-13T10:05:59;102527.88;;;8.77;100.00
7309;BME280;3695;53.330;9.876;2023-01-13T10:08:30;102524.53;;;8.92;100.00
7309;BME280;3695;53.330;9.876;2023-01-13T10:11:00;102482.25;;;8.74;100.00
7309;BME280;3695;53.330;9.876;2023-01-13T10:13:49;102492.75;;;8.77;100.00
7309;BME280;3695;53.330;9.876;2023-01-13T10:16:25;102492.06;;;8.83;100.00
7309;BME280;3695;53.330;9.876;2023-01-13T10:19:04;102483.28;;;8.81;100.00
7309;BME280;3695;53.330;9.876;2023-01-13T10:22:00;102490.72;;;8.79;100.00
7309;BME280;3695;53.330;9.876;2023-01-13T10:24:47;102466.91;;;8.83;100.00
7309;BME280;3695;53.330;9.876;2023-01-13T10:27:22;102453.19;;;8.76;100.00
7309;BME280;3695;53.330;9.876;2023-01-13T10:29:50;102432.09;;;8.80;100.00
7309;BME280;3695;53.330;9.876;2023-01-13T10:32:17;102408.25;;;8.92;100.00
7309;BME280;3695;53.330;9.876;2023-01-13T10:34:46;102389.66;;;8.80;100.00
7309;BME280;3695;53.330;9.876;2023-01-13T10:37:19;102371.75;;;8.79;100.00
7309;BME280;3695;53.330;9.876;2023-01-13T10:39:48;102354.00;;;8.77;100.00
7309;BME280;3695;53.330;9.876;2023-01-13T10:42:16;102342.19;;;8.94;100.00
7309;BME280;3695;53.330;9.876;2023-01-13T10:44:48;102321.91;;;8.90;100.00
7309;BME280;3695;53.330;9.876;2023-01-13T10:47:20;102327.81;;;9.10;100.00
7309;BME280;3695;53.330;9.876;2023-01-13T10:50:00;102311.94;;;9.07;100.00
7309;BME280;3695;53.330;9.876;2023-01-13T10:52:29;102293.03;;;8.99;100.00
7309;BME280;3695;53.330;9.876;2023-01-13T10:54:56;102312.97;;;9.06;100.00
7309;BME280;3695;53.330;9.876;2023-01-13T10:57:24;102304.81;;;8.98;100.00
7309;BME280;3695;53.330;9.876;2023-01-13T10:59:51;102310.56;;;8.95;100.00
7309;BME280;3695;53.330;9.876;2023-01-13T11:02:24;102303.97;;;8.97;100.00
7309;BME280;3695;53.330;9.876;2023-01-13T11:05:04;102332.88;;;9.21;100.00
7309;BME280;3695;53.330;9.876;2023-01-13T11:07:37;102310.41;;;8.96;100.00
7309;BME280;3695;53.330;9.876;2023-01-13T11:10:17;102339.31;;;9.12;100.00
7309;BME280;3695;53.330;9.876;2023-01-13T11:12:52;102367.91;;;9.06;100.00
7309;BME280;3695;53.330;9.876;2023-01-13T11:15:26;102376.81;;;8.91;100.00
7309;BME280;3695;53.330;9.876;2023-01-13T11:17:57;102390.34;;;8.74;100.00
7309;BME280;3695;53.330;9.876;2023-01-13T11:20:30;102493.22;;;8.65;100.00
7309;BME280;3695;53.330;9.876;2023-01-13T11:23:03;102595.63;;;8.42;100.00
7309;BME280;3695;53.330;9.876;2023-01-13T11:25:37;102716.13;;;8.17;100.00
7309;BME280;3695;53.330;9.876;2023-01-13T11:28:17;102914.41;;;8.24;100.00
7309;BME280;3695;53.330;9.876;2023-01-13T11:30:53;103092.06;;;7.93;100.00
7309;BME280;3695;53.330;9.876;2023-01-13T11:33:34;103330.88;;;8.10;100.00
7309;BME280;3695;53.330;9.876;2023-01-13T11:36:10;103528.63;;;7.83;100.00
7309;BME280;3695;53.330;9.876;2023-01-13T11:38:43;103653.97;;;8.01;100.00
7309;BME280;3695;53.330;9.876;2023-01-13T11:41:21;103798.38;;;8.08;100.00
7309;BME280;3695;53.330;9.876;2023-01-13T11:43:50;103920.78;;;7.98;100.00
7309;BME280;3695;53.330;9.876;2023-01-13T11:46:20;104032.88;;;8.03;100.00
7309;BME280;3695;53.330;9.876;2023-01-13T11:48:48;104166.47;;;7.99;100.00
7309;BME280;3695;53.330;9.876;2023-01-13T11:51:26;104300.41;;;8.14;95.26
7309;BME280;3695;53.330;9.876;2023-01-13T11:57:06;104528.94;;;7.93;89.76
7309;BME280;3695;53.330;9.876;2023-01-13T11:59:55;104593.31;;;7.99;87.37
7309;BME280;3695;53.330;9.876;2023-01-13T12:02:36;104683.81;;;8.06;85.29
7309;BME280;3695;53.330;9.876;2023-01-13T12:05:14;104763.91;;;8.07;83.87
7309;BME280;3695;53.330;9.876;2023-01-13T12:07:51;104748.84;;;8.03;83.44
7309;BME280;3695;53.330;9.876;2023-01-13T12:10:34;104823.28;;;7.95;82.83
7309;BME280;3695;53.330;9.876;2023-01-13T12:13:14;104866.31;;;7.98;81.83
7309;BME280;3695;53.330;9.876;2023-01-13T12:19:21;104983.66;;;8.08;79.83
7309;BME280;3695;53.330;9.876;2023-01-13T12:21:57;104982.88;;;8.20;79.14
7309;BME280;3695;53.330;9.876;2023-01-13T12:24:30;104963.47;;;8.13;79.32
7309;BME280;3695;53.330;9.876;2023-01-13T12:27:01;104961.75;;;8.12;79.19
7309;BME280;3695;53.330;9.876;2023-01-13T12:29:32;104953.69;;;8.25;78.82
7309;BME280;3695;53.330;9.876;2023-01-13T12:32:00;104912.28;;;8.25;79.04
7309;BME280;3695;53.330;9.876;2023-01-13T12:34:38;104810.53;;;8.24;79.59
7309;BME280;3695;53.330;9.876;2023-01-13T12:37:12;104828.38;;;8.26;79.53
7309;BME280;3695;53.330;9.876;2023-01-13T12:39:49;104793.25;;;8.26;79.60
7309;BME280;3695;53.330;9.876;2023-01-13T12:42:20;104793.13;;;8.28;79.57
7309;BME280;3695;53.330;9.876;2023-01-13T12:45:21;104781.47;;;8.27;79.55
7309;BME280;3695;53.330;9.876;2023-01-13T12:47:48;104772.38;;;8.28;79.55
7309;BME280;3695;53.330;9.876;2023-01-13T12:50:39;104770.53;;;8.29;79.53
7309;BME280;3695;53.330;9.876;2023-01-13T12:53:29;104707.28;;;8.18;80.23
7309;BME280;3695;53.330;9.876;2023-01-13T12:56:24;104653.66;;;8.12;80.90
7309;BME280;3695;53.330;9.876;2023-01-13T13:02:25;104653.44;;;8.28;80.51
7309;BME280;3695;53.330;9.876;2023-01-13T13:04:54;104553.00;;;8.21;81.62
7309;BME280;3695;53.330;9.876;2023-01-13T13:07:30;104498.41;;;8.29;82.08
7309;BME280;3695;53.330;9.876;2023-01-13T13:09:59;104431.41;;;8.21;83.35
7309;BME280;3695;53.330;9.876;2023-01-13T13:12:57;104399.34;;;8.28;83.88
7309;BME280;3695;53.330;9.876;2023-01-13T13:15:42;104365.09;;;8.29;84.87
7309;BME280;3695;53.330;9.876;2023-01-13T13:18:27;104334.69;;;8.38;85.33
7309;BME280;3695;53.330;9.876;2023-01-13T13:20:57;104252.53;;;8.28;87.17
7309;BME280;3695;53.330;9.876;2023-01-13T13:23:59;104196.53;;;8.30;88.70
7309;BME280;3695;53.330;9.876;2023-01-13T13:26:38;104174.66;;;8.33;89.58
7309;BME280;3695;53.330;9.876;2023-01-13T13:29:25;104147.06;;;8.40;90.16
7309;BME280;3695;53.330;9.876;2023-01-13T13:32:10;104135.88;;;8.45;90.86
7309;BME280;3695;53.330;9.876;2023-01-13T13:34:48;104065.34;;;8.37;93.03
7309;BME280;3695;53.330;9.876;2023-01-13T13:37:40;104069.63;;;8.28;94.80
7309;BME280;3695;53.330;9.876;2023-01-13T13:40:24;104051.59;;;8.40;95.46
7309;BME280;3695;53.330;9.876;2023-01-13T13:43:11;104039.66;;;8.31;97.22
7309;BME280;3695;53.330;9.876;2023-01-13T13:45:57;103995.34;;;8.34;98.60
7309;BME280;3695;53.330;9.876;2023-01-13T13:48:49;103969.03;;;8.36;100.00
7309;BME280;3695;53.330;9.876;2023-01-13T13:51:23;103968.75;;;8.50;100.00
7309;BME280;3695;53.330;9.876;2023-01-13T13:53:51;103931.88;;;8.49;100.00
7309;BME280;3695;53.330;9.876;2023-01-13T13:56:23;103901.16;;;8.50;100.00